sensor_id;sensor_type;location;lat;lon;timestamp;P1;P2;P0
76049;PMS7003;64967;50.234;19.224;2023-07-16T00:00:36;5.00;5.00;5.00
76049;PMS7003;64967;50.234;19.224;2023-07-16T00:03:03;4.00;4.00;3.33
76049;PMS7003;64967;50.234;19.224;2023-07-16T00:05:30;2.67;2.00;2.00
76049;PMS7003;64967;50.234;19.224;2023-07-16T00:07:57;3.00;3.00;2.00
76049;PMS7003;64967;50.234;19.224;2023-07-16T00:10:24;3.00;3.00;2.33
76049;PMS7003;64967;50.234;19.224;2023-07-16T00:12:51;4.00;4.00;4.00
76049;PMS7003;64967;50.234;19.224;2023-07-16T00:15:18;2.67;2.67;2.33
76049;PMS7003;64967;50.234;19.224;2023-07-16T00:17:45;5.00;4.33;4.00
76049;PMS7003;64967;50.234;19.224;2023-07-16T00:20:12;3.33;3.00;2.00
76049;PMS7003;64967;50.234;19.224;2023-07-16T00:22:39;4.67;3.00;3.00
76049;PMS7003;64967;50.234;19.224;2023-07-16T00:25:07;3.00;3.00;3.00
76049;PMS7003;64967;50.234;19.224;2023-07-16T00:27:34;4.00;4.00;3.00
76049;PMS7003;64967;50.234;19.224;2023-07-16T00:30:02;3.00;3.00;2.33
76049;PMS7003;64967;50.234;19.224;2023-07-16T00:32:29;2.67;2.33;2.00
76049;PMS7003;64967;50.234;19.224;2023-07-16T00:34:57;3.00;3.00;2.00
76049;PMS7003;64967;50.234;19.224;2023-07-16T00:37:24;2.67;2.67;2.00
76049;PMS7003;64967;50.234;19.224;2023-07-16T00:39:52;3.00;3.00;3.00
76049;PMS7003;64967;50.234;19.224;2023-07-16T00:42:19;2.00;1.00;1.00
76049;PMS7003;64967;50.234;19.224;2023-07-16T00:44:46;1.00;1.00;1.00
76049;PMS7003;64967;50.234;19.224;2023-07-16T00:47:13;3.67;3.00;3.00
76049;PMS7003;64967;50.234;19.224;2023-07-16T00:49:40;2.67;2.67;2.33
76049;PMS7003;64967;50.234;19.224;2023-07-16T00:52:08;2.00;2.00;2.00
76049;PMS7003;64967;50.234;19.224;2023-07-16T00:54:41;4.00;4.00;4.00
76049;PMS7003;64967;50.234;19.224;2023-07-16T00:57:08;4.00;4.00;4.00
76049;PMS7003;64967;50.234;19.224;2023-07-16T00:59:35;2.00;2.00;2.00
76049;PMS7003;64967;50.234;19.224;2023-07-16T01:02:02;2.67;2.67;2.33
76049;PMS7003;64967;50.234;19.224;2023-07-16T01:04:30;4.00;3.67;3.00
76049;PMS7003;64967;50.234;19.224;2023-07-16T01:07:11;2.00;2.00;2.00
76049;PMS7003;64967;50.234;19.224;2023-07-16T01:10:06;6.00;6.00;5.00
76049;PMS7003;64967;50.234;19.224;2023-07-16T01:12:53;8.00;7.00;6.33
76049;PMS7003;64967;50.234;19.224;2023-07-16T01:15:40;6.67;6.33;6.00
76049;PMS7003;64967;50.234;19.224;2023-07-16T01:18:26;8.33;8.00;6.67
76049;PMS7003;64967;50.234;19.224;2023-07-16T01:21:03;5.33;5.00;4.00
76049;PMS7003;64967;50.234;19.224;2023-07-16T01:27:09;7.00;7.00;6.00
76049;PMS7003;64967;50.234;19.224;2023-07-16T01:29:54;7.67;6.67;5.67
76049;PMS7003;64967;50.234;19.224;2023-07-16T01:32:28;7.67;7.67;6.67
76049;PMS7003;64967;50.234;19.224;2023-07-16T01:34:59;7.67;6.67;5.67
76049;PMS7003;64967;50.234;19.224;2023-07-16T01:37:28;5.67;5.33;5.00
76049;PMS7003;64967;50.234;19.224;2023-07-16T01:39:55;4.67;4.33;3.67
76049;PMS7003;64967;50.234;19.224;2023-07-16T01:42:22;6.00;6.00;5.67
76049;PMS7003;64967;50.234;19.224;2023-07-16T01:44:50;8.33;8.33;7.33
76049;PMS7003;64967;50.234;19.224;2023-07-16T01:49:50;7.33;7.33;7.00
76049;PMS7003;64967;50.234;19.224;2023-07-16T01:52:17;8.00;7.00;6.67
76049;PMS7003;64967;50.234;19.224;2023-07-16T01:54:44;6.67;6.67;5.00
76049;PMS7003;64967;50.234;19.224;2023-07-16T01:57:11;6.33;5.67;4.67
76049;PMS7003;64967;50.234;19.224;2023-07-16T01:59:38;4.67;4.00;3.00
76049;PMS7003;64967;50.234;19.224;2023-07-16T02:02:05;3.00;3.00;3.00
76049;PMS7003;64967;50.234;19.224;2023-07-16T02:04:33;5.00;4.67;4.00
76049;PMS7003;64967;50.234;19.224;2023-07-16T02:07:00;3.67;3.67;3.33
76049;PMS7003;64967;50.234;19.224;2023-07-16T02:09:27;4.00;3.67;3.00
76049;PMS7003;64967;50.234;19.224;2023-07-16T02:11:54;4.00;4.00;3.33
76049;PMS7003;64967;50.234;19.224;2023-07-16T02:14:21;2.00;2.00;2.00
76049;PMS7003;64967;50.234;19.224;2023-07-16T02:16:48;3.67;3.67;3.00
76049;PMS7003;64967;50.234;19.224;2023-07-16T02:19:15;3.33;3.33;3.00
76049;PMS7003;64967;50.234;19.224;2023-07-16T02:21:43;4.00;4.00;3.33
76049;PMS7003;64967;50.234;19.224;2023-07-16T02:24:10;5.67;5.00;4.00
76049;PMS7003;64967;50.234;19.224;2023-07-16T02:26:37;3.67;3.67;3.33
76049;PMS7003;64967;50.234;19.224;2023-07-16T02:29:05;5.00;4.33;4.00
76049;PMS7003;64967;50.234;19.224;2023-07-16T02:31:35;4.33;3.33;3.33
76049;PMS7003;64967;50.234;19.224;2023-07-16T02:34:03;3.00;3.00;3.00
76049;PMS7003;64967;50.234;19.224;2023-07-16T02:36:30;4.67;3.00;2.67
76049;PMS7003;64967;50.234;19.224;2023-07-16T02:38:57;3.33;3.33;2.33
76049;PMS7003;64967;50.234;19.224;2023-07-16T02:41:24;2.00;2.00;2.00
76049;PMS7003;64967;50.234;19.224;2023-07-16T02:43:58;4.00;3.00;3.00
76049;PMS7003;64967;50.234;19.224;2023-07-16T02:46:28;3.33;3.33;3.00
76049;PMS7003;64967;50.234;19.224;2023-07-16T02:48:55;1.00;1.00;1.00
76049;PMS7003;64967;50.234;19.224;2023-07-16T02:51:22;1.67;1.00;1.00
76049;PMS7003;64967;50.234;19.224;2023-07-16T02:53:49;3.00;3.00;3.00
76049;PMS7003;64967;50.234;19.224;2023-07-16T02:56:16;5.00;5.00;4.67
76049;PMS7003;64967;50.234;19.224;2023-07-16T02:58:44;4.00;4.00;3.00
76049;PMS7003;64967;50.234;19.224;2023-07-16T03:01:11;4.00;4.00;3.33
76049;PMS7003;64967;50.234;19.224;2023-07-16T03:03:39;4.00;4.00;4.00
76049;PMS7003;64967;50.234;19.224;2023-07-16T03:06:06;5.00;4.00;4.00
76049;PMS7003;64967;50.234;19.224;2023-07-16T03:08:34;5.00;5.00;4.67
76049;PMS7003;64967;50.234;19.224;2023-07-16T03:11:01;4.33;3.67;3.00
76049;PMS7003;64967;50.234;19.224;2023-07-16T03:13:28;4.00;3.00;2.67
76049;PMS7003;64967;50.234;19.224;2023-07-16T03:15:55;3.00;3.00;2.00
76049;PMS7003;64967;50.234;19.224;2023-07-16T03:18:22;5.67;5.00;5.00
76049;PMS7003;64967;50.234;19.224;2023-07-16T03:20:58;4.00;4.00;4.00
76049;PMS7003;64967;50.234;19.224;2023-07-16T03:23:25;4.00;4.00;3.00
76049;PMS7003;64967;50.234;19.224;2023-07-16T03:25:53;4.67;4.67;4.00
76049;PMS7003;64967;50.234;19.224;2023-07-16T03:28:20;4.67;4.67;4.00
76049;PMS7003;64967;50.234;19.224;2023-07-16T03:30:49;7.00;7.00;6.00
76049;PMS7003;64967;50.234;19.224;2023-07-16T03:33:17;6.33;6.33;5.33
76049;PMS7003;64967;50.234;19.224;2023-07-16T03:35:45;7.33;6.67;5.33
76049;PMS7003;64967;50.234;19.224;2023-07-16T03:38:15;6.33;4.00;3.00
76049;PMS7003;64967;50.234;19.224;2023-07-16T03:40:45;5.00;5.00;4.00
76049;PMS7003;64967;50.234;19.224;2023-07-16T03:43:14;6.00;5.00;4.33
76049;PMS7003;64967;50.234;19.224;2023-07-16T03:45:43;3.00;3.00;2.33
76049;PMS7003;64967;50.234;19.224;2023-07-16T03:48:10;6.00;5.67;4.67
76049;PMS7003;64967;50.234;19.224;2023-07-16T03:50:37;4.00;4.00;3.33
76049;PMS7003;64967;50.234;19.224;2023-07-16T03:53:04;5.00;5.00;4.00
76049;PMS7003;64967;50.234;19.224;2023-07-16T03:55:31;6.67;6.67;6.00
76049;PMS7003;64967;50.234;19.224;2023-07-16T03:57:58;5.67;5.67;4.67
76049;PMS7003;64967;50.234;19.224;2023-07-16T04:00:25;3.00;3.00;3.00
76049;PMS7003;64967;50.234;19.224;2023-07-16T04:02:52;6.00;6.00;5.67
76049;PMS7003;64967;50.234;19.224;2023-07-16T04:05:19;4.67;4.67;4.67
76049;PMS7003;64967;50.234;19.224;2023-07-16T04:07:49;5.33;5.00;4.00
76049;PMS7003;64967;50.234;19.224;2023-07-16T04:10:17;5.67;5.67;4.67
76049;PMS7003;64967;50.234;19.224;2023-07-16T04:12:44;5.00;5.00;4.00
76049;PMS7003;64967;50.234;19.224;2023-07-16T04:15:11;6.67;6.00;5.00
76049;PMS7003;64967;50.234;19.224;2023-07-16T04:17:38;8.00;8.00;7.00
76049;PMS7003;64967;50.234;19.224;2023-07-16T04:20:06;10.00;9.33;8.00
76049;PMS7003;64967;50.234;19.224;2023-07-16T04:22:33;10.00;8.00;6.00
76049;PMS7003;64967;50.234;19.224;2023-07-16T04:25:02;9.67;9.67;9.00
76049;PMS7003;64967;50.234;19.224;2023-07-16T04:27:30;9.33;8.00;7.00
76049;PMS7003;64967;50.234;19.224;2023-07-16T04:29:57;7.00;6.67;6.00
76049;PMS7003;64967;50.234;19.224;2023-07-16T04:32:24;6.33;6.33;5.67
76049;PMS7003;64967;50.234;19.224;2023-07-16T04:34:51;6.00;6.00;5.00
76049;PMS7003;64967;50.234;19.224;2023-07-16T04:37:19;8.00;7.00;6.67
76049;PMS7003;64967;50.234;19.224;2023-07-16T04:39:46;12.00;10.33;9.67
76049;PMS7003;64967;50.234;19.224;2023-07-16T04:42:13;11.00;11.00;10.00
76049;PMS7003;64967;50.234;19.224;2023-07-16T04:44:40;15.00;14.00;11.00
76049;PMS7003;64967;50.234;19.224;2023-07-16T04:47:07;10.00;9.33;7.33
76049;PMS7003;64967;50.234;19.224;2023-07-16T04:49:34;11.33;10.67;9.33
76049;PMS7003;64967;50.234;19.224;2023-07-16T04:52:02;14.75;14.25;12.50
76049;PMS7003;64967;50.234;19.224;2023-07-16T04:54:36;13.00;13.00;10.00
76049;PMS7003;64967;50.234;19.224;2023-07-16T04:57:07;11.33;11.33;10.67
76049;PMS7003;64967;50.234;19.224;2023-07-16T04:59:34;15.00;13.67;11.33
76049;PMS7003;64967;50.234;19.224;2023-07-16T05:02:04;11.33;10.33;10.00
76049;PMS7003;64967;50.234;19.224;2023-07-16T05:04:33;12.00;12.00;11.00
76049;PMS7003;64967;50.234;19.224;2023-07-16T05:07:03;12.00;10.67;8.33
76049;PMS7003;64967;50.234;19.224;2023-07-16T05:09:30;15.00;15.00;12.00
76049;PMS7003;64967;50.234;19.224;2023-07-16T05:11:57;15.33;14.67;14.00
76049;PMS7003;64967;50.234;19.224;2023-07-16T05:14:25;20.00;18.33;15.33
76049;PMS7003;64967;50.234;19.224;2023-07-16T05:16:55;18.67;18.33;14.00
76049;PMS7003;64967;50.234;19.224;2023-07-16T05:19:26;20.00;20.00;16.00
76049;PMS7003;64967;50.234;19.224;2023-07-16T05:21:53;19.33;17.33;15.67
76049;PMS7003;64967;50.234;19.224;2023-07-16T05:24:20;21.33;20.00;15.00
76049;PMS7003;64967;50.234;19.224;2023-07-16T05:26:48;14.67;14.33;12.00
76049;PMS7003;64967;50.234;19.224;2023-07-16T05:29:16;15.67;15.67;14.67
76049;PMS7003;64967;50.234;19.224;2023-07-16T05:31:43;13.67;13.67;12.67
76049;PMS7003;64967;50.234;19.224;2023-07-16T05:34:13;18.67;18.00;14.67
76049;PMS7003;64967;50.234;19.224;2023-07-16T05:36:41;16.33;15.67;13.00
76049;PMS7003;64967;50.234;19.224;2023-07-16T05:39:08;16.00;15.67;13.67
76049;PMS7003;64967;50.234;19.224;2023-07-16T05:41:35;16.00;15.33;12.67
76049;PMS7003;64967;50.234;19.224;2023-07-16T05:44:02;17.00;17.00;14.67
76049;PMS7003;64967;50.234;19.224;2023-07-16T05:46:29;14.00;12.67;11.00
76049;PMS7003;64967;50.234;19.224;2023-07-16T05:48:56;16.00;16.00;14.00
76049;PMS7003;64967;50.234;19.224;2023-07-16T05:51:25;16.00;14.67;12.67
76049;PMS7003;64967;50.234;19.224;2023-07-16T05:53:52;15.67;15.33;12.33
76049;PMS7003;64967;50.234;19.224;2023-07-16T05:56:19;10.67;10.67;10.33
76049;PMS7003;64967;50.234;19.224;2023-07-16T05:58:47;15.67;15.00;12.67
76049;PMS7003;64967;50.234;19.224;2023-07-16T06:01:14;10.67;10.67;9.00
76049;PMS7003;64967;50.234;19.224;2023-07-16T06:03:41;9.00;8.00;7.00
76049;PMS7003;64967;50.234;19.224;2023-07-16T06:06:08;12.00;12.00;9.33
76049;PMS7003;64967;50.234;19.224;2023-07-16T06:08:36;11.00;11.00;9.67
76049;PMS7003;64967;50.234;19.224;2023-07-16T06:11:03;14.00;13.00;11.67
76049;PMS7003;64967;50.234;19.224;2023-07-16T06:13:30;13.00;13.00;11.00
76049;PMS7003;64967;50.234;19.224;2023-07-16T06:15:58;12.00;12.00;11.00
76049;PMS7003;64967;50.234;19.224;2023-07-16T06:18:25;9.33;9.33;8.00
76049;PMS7003;64967;50.234;19.224;2023-07-16T06:20:52;11.00;11.00;10.00
76049;PMS7003;64967;50.234;19.224;2023-07-16T06:23:21;9.33;9.00;8.67
76049;PMS7003;64967;50.234;19.224;2023-07-16T06:25:53;8.00;8.00;7.00
76049;PMS7003;64967;50.234;19.224;2023-07-16T06:28:22;9.50;9.25;8.25
76049;PMS7003;64967;50.234;19.224;2023-07-16T06:30:50;10.00;10.00;8.67
76049;PMS7003;64967;50.234;19.224;2023-07-16T06:33:19;6.67;6.67;6.00
76049;PMS7003;64967;50.234;19.224;2023-07-16T06:35:46;9.33;9.00;7.00
76049;PMS7003;64967;50.234;19.224;2023-07-16T06:38:14;8.67;8.00;7.67
76049;PMS7003;64967;50.234;19.224;2023-07-16T06:40:48;5.00;5.00;5.00
76049;PMS7003;64967;50.234;19.224;2023-07-16T06:43:16;10.00;9.00;8.00
76049;PMS7003;64967;50.234;19.224;2023-07-16T06:45:44;6.00;6.00;5.00
76049;PMS7003;64967;50.234;19.224;2023-07-16T06:48:11;6.33;6.33;6.33
76049;PMS7003;64967;50.234;19.224;2023-07-16T06:50:38;9.00;9.00;8.00
76049;PMS7003;64967;50.234;19.224;2023-07-16T06:53:05;10.00;10.00;9.00
76049;PMS7003;64967;50.234;19.224;2023-07-16T06:55:32;12.00;12.00;9.33
76049;PMS7003;64967;50.234;19.224;2023-07-16T06:58:00;11.00;10.00;8.67
76049;PMS7003;64967;50.234;19.224;2023-07-16T07:00:27;15.00;13.33;11.33
76049;PMS7003;64967;50.234;19.224;2023-07-16T07:02:54;12.67;12.00;10.67
76049;PMS7003;64967;50.234;19.224;2023-07-16T07:05:22;12.00;12.00;10.33
76049;PMS7003;64967;50.234;19.224;2023-07-16T07:07:49;13.00;12.00;10.00
76049;PMS7003;64967;50.234;19.224;2023-07-16T07:10:16;10.33;10.00;9.00
76049;PMS7003;64967;50.234;19.224;2023-07-16T07:12:43;16.00;16.00;13.00
76049;PMS7003;64967;50.234;19.224;2023-07-16T07:15:10;13.33;12.33;10.33
76049;PMS7003;64967;50.234;19.224;2023-07-16T07:17:37;12.67;12.00;10.33
76049;PMS7003;64967;50.234;19.224;2023-07-16T07:20:06;10.67;10.67;9.67
76049;PMS7003;64967;50.234;19.224;2023-07-16T07:22:33;13.00;13.00;11.00
76049;PMS7003;64967;50.234;19.224;2023-07-16T07:25:01;12.00;12.00;11.00
76049;PMS7003;64967;50.234;19.224;2023-07-16T07:27:28;15.00;14.00;12.00
76049;PMS7003;64967;50.234;19.224;2023-07-16T07:29:55;11.00;11.00;9.67
76049;PMS7003;64967;50.234;19.224;2023-07-16T07:32:25;10.00;9.67;9.00
76049;PMS7003;64967;50.234;19.224;2023-07-16T07:34:55;9.67;9.67;8.67
76049;PMS7003;64967;50.234;19.224;2023-07-16T07:37:22;5.00;5.00;4.25
76049;PMS7003;64967;50.234;19.224;2023-07-16T07:39:52;6.00;6.00;6.00
76049;PMS7003;64967;50.234;19.224;2023-07-16T07:42:20;7.33;7.33;6.33
76049;PMS7003;64967;50.234;19.224;2023-07-16T07:44:50;12.00;11.33;9.00
76049;PMS7003;64967;50.234;19.224;2023-07-16T07:47:18;13.00;13.00;11.00
76049;PMS7003;64967;50.234;19.224;2023-07-16T07:49:45;13.00;13.00;11.00
76049;PMS7003;64967;50.234;19.224;2023-07-16T07:52:12;9.33;9.33;8.67
76049;PMS7003;64967;50.234;19.224;2023-07-16T07:54:39;7.67;7.00;7.00
76049;PMS7003;64967;50.234;19.224;2023-07-16T07:57:06;6.33;6.33;5.67
76049;PMS7003;64967;50.234;19.224;2023-07-16T07:59:33;7.00;7.00;6.00
76049;PMS7003;64967;50.234;19.224;2023-07-16T08:02:01;7.00;6.00;6.00
76049;PMS7003;64967;50.234;19.224;2023-07-16T08:04:30;9.33;9.33;8.00
76049;PMS7003;64967;50.234;19.224;2023-07-16T08:07:00;10.00;10.00;9.00
76049;PMS7003;64967;50.234;19.224;2023-07-16T08:09:30;15.67;14.67;11.00
76049;PMS7003;64967;50.234;19.224;2023-07-16T08:11:57;12.67;12.00;11.00
76049;PMS7003;64967;50.234;19.224;2023-07-16T08:14:24;14.33;11.00;9.00
76049;PMS7003;64967;50.234;19.224;2023-07-16T08:20:35;11.00;10.00;7.33
76049;PMS7003;64967;50.234;19.224;2023-07-16T08:23:02;13.00;12.00;10.33
76049;PMS7003;64967;50.234;19.224;2023-07-16T08:25:30;20.00;19.00;15.00
76049;PMS7003;64967;50.234;19.224;2023-07-16T08:27:57;24.67;24.00;19.00
76049;PMS7003;64967;50.234;19.224;2023-07-16T08:30:24;24.33;24.33;18.67
76049;PMS7003;64967;50.234;19.224;2023-07-16T08:32:51;28.33;27.00;20.67
76049;PMS7003;64967;50.234;19.224;2023-07-16T08:35:18;28.33;27.67;21.00
76049;PMS7003;64967;50.234;19.224;2023-07-16T08:37:46;27.00;26.67;20.33
76049;PMS7003;64967;50.234;19.224;2023-07-16T08:40:13;27.67;27.67;20.00
76049;PMS7003;64967;50.234;19.224;2023-07-16T08:42:41;22.67;22.67;18.33
76049;PMS7003;64967;50.234;19.224;2023-07-16T08:45:12;24.33;21.33;16.67
76049;PMS7003;64967;50.234;19.224;2023-07-16T08:47:41;29.67;27.00;22.00
76049;PMS7003;64967;50.234;19.224;2023-07-16T08:50:09;21.33;20.67;17.33
76049;PMS7003;64967;50.234;19.224;2023-07-16T08:52:37;23.33;23.33;19.33
76049;PMS7003;64967;50.234;19.224;2023-07-16T08:55:06;19.00;18.67;16.00
76049;PMS7003;64967;50.234;19.224;2023-07-16T08:57:34;20.00;19.00;16.00
76049;PMS7003;64967;50.234;19.224;2023-07-16T09:00:02;17.00;17.00;13.33
76049;PMS7003;64967;50.234;19.224;2023-07-16T09:02:30;18.00;17.00;15.00
76049;PMS7003;64967;50.234;19.224;2023-07-16T09:04:58;19.00;18.33;16.67
76049;PMS7003;64967;50.234;19.224;2023-07-16T09:07:27;25.00;25.00;19.00
76049;PMS7003;64967;50.234;19.224;2023-07-16T09:09:54;25.67;24.67;19.00
76049;PMS7003;64967;50.234;19.224;2023-07-16T09:12:25;24.33;24.00;19.00
76049;PMS7003;64967;50.234;19.224;2023-07-16T09:14:53;30.33;29.33;22.67
76049;PMS7003;64967;50.234;19.224;2023-07-16T09:17:23;24.33;24.33;19.33
76049;PMS7003;64967;50.234;19.224;2023-07-16T09:19:52;23.00;23.00;19.33
76049;PMS7003;64967;50.234;19.224;2023-07-16T09:22:19;16.25;16.00;14.25
76049;PMS7003;64967;50.234;19.224;2023-07-16T09:24:47;20.00;18.67;15.67
76049;PMS7003;64967;50.234;19.224;2023-07-16T09:27:15;18.33;18.33;15.33
76049;PMS7003;64967;50.234;19.224;2023-07-16T09:29:42;15.67;15.67;12.67
76049;PMS7003;64967;50.234;19.224;2023-07-16T09:32:09;29.33;29.00;22.00
76049;PMS7003;64967;50.234;19.224;2023-07-16T09:34:37;23.67;23.33;19.67
76049;PMS7003;64967;50.234;19.224;2023-07-16T09:37:05;27.33;27.33;21.00
76049;PMS7003;64967;50.234;19.224;2023-07-16T09:39:33;38.33;34.00;26.33
76049;PMS7003;64967;50.234;19.224;2023-07-16T09:42:01;34.33;31.33;23.67
76049;PMS7003;64967;50.234;19.224;2023-07-16T09:44:30;35.00;32.00;24.00
76049;PMS7003;64967;50.234;19.224;2023-07-16T09:46:58;34.00;31.33;23.33
76049;PMS7003;64967;50.234;19.224;2023-07-16T09:49:27;27.00;26.33;21.00
76049;PMS7003;64967;50.234;19.224;2023-07-16T09:51:56;38.33;32.67;23.67
76049;PMS7003;64967;50.234;19.224;2023-07-16T09:54:25;33.00;30.67;22.33
76049;PMS7003;64967;50.234;19.224;2023-07-16T09:56:56;27.00;27.00;21.00
76049;PMS7003;64967;50.234;19.224;2023-07-16T09:59:27;23.33;22.67;19.00
76049;PMS7003;64967;50.234;19.224;2023-07-16T10:01:56;21.00;21.00;19.00
76049;PMS7003;64967;50.234;19.224;2023-07-16T10:04:24;20.67;20.33;16.67
76049;PMS7003;64967;50.234;19.224;2023-07-16T10:06:55;25.33;25.00;20.67
76049;PMS7003;64967;50.234;19.224;2023-07-16T10:09:31;21.67;21.33;18.33
76049;PMS7003;64967;50.234;19.224;2023-07-16T10:14:48;21.67;20.33;17.33
76049;PMS7003;64967;50.234;19.224;2023-07-16T10:19:57;26.00;25.67;20.00
76049;PMS7003;64967;50.234;19.224;2023-07-16T10:22:32;24.33;23.67;18.67
76049;PMS7003;64967;50.234;19.224;2023-07-16T10:25:00;25.00;24.33;18.67
76049;PMS7003;64967;50.234;19.224;2023-07-16T10:27:35;17.67;16.67;14.67
76049;PMS7003;64967;50.234;19.224;2023-07-16T10:30:04;20.33;20.33;17.67
76049;PMS7003;64967;50.234;19.224;2023-07-16T10:32:35;18.33;18.33;15.33
76049;PMS7003;64967;50.234;19.224;2023-07-16T10:35:05;17.67;17.67;14.67
76049;PMS7003;64967;50.234;19.224;2023-07-16T10:37:33;17.67;17.67;15.33
76049;PMS7003;64967;50.234;19.224;2023-07-16T10:40:01;22.00;21.00;17.00
76049;PMS7003;64967;50.234;19.224;2023-07-16T10:42:32;25.67;23.67;19.00
76049;PMS7003;64967;50.234;19.224;2023-07-16T10:45:03;18.67;17.67;14.00
76049;PMS7003;64967;50.234;19.224;2023-07-16T10:47:32;16.33;16.33;13.00
76049;PMS7003;64967;50.234;19.224;2023-07-16T10:50:07;25.00;24.33;20.00
76049;PMS7003;64967;50.234;19.224;2023-07-16T10:52:36;22.00;19.33;15.00
76049;PMS7003;64967;50.234;19.224;2023-07-16T10:55:06;19.67;19.33;15.67
76049;PMS7003;64967;50.234;19.224;2023-07-16T10:57:33;22.67;22.00;19.00
76049;PMS7003;64967;50.234;19.224;2023-07-16T11:00:02;19.67;19.00;16.00
76049;PMS7003;64967;50.234;19.224;2023-07-16T11:02:30;24.33;23.33;18.33
76049;PMS7003;64967;50.234;19.224;2023-07-16T11:04:57;19.00;18.67;16.00
76049;PMS7003;64967;50.234;19.224;2023-07-16T11:07:27;14.33;14.33;12.33
76049;PMS7003;64967;50.234;19.224;2023-07-16T11:09:54;16.00;14.33;12.00
76049;PMS7003;64967;50.234;19.224;2023-07-16T11:12:23;12.67;12.00;11.00
76049;PMS7003;64967;50.234;19.224;2023-07-16T11:14:52;11.33;11.33;10.00
76049;PMS7003;64967;50.234;19.224;2023-07-16T11:17:21;11.00;11.00;9.67
76049;PMS7003;64967;50.234;19.224;2023-07-16T11:19:51;16.67;16.00;13.33
76049;PMS7003;64967;50.234;19.224;2023-07-16T11:22:19;18.00;17.67;13.67
76049;PMS7003;64967;50.234;19.224;2023-07-16T11:24:51;17.33;16.33;13.33
76049;PMS7003;64967;50.234;19.224;2023-07-16T11:27:19;15.00;15.00;12.00
76049;PMS7003;64967;50.234;19.224;2023-07-16T11:29:48;12.33;11.67;9.67
76049;PMS7003;64967;50.234;19.224;2023-07-16T11:32:36;13.33;13.33;11.33
76049;PMS7003;64967;50.234;19.224;2023-07-16T11:35:05;15.00;13.67;11.67
76049;PMS7003;64967;50.234;19.224;2023-07-16T11:37:34;13.00;12.33;10.67
76049;PMS7003;64967;50.234;19.224;2023-07-16T11:40:03;13.00;13.00;10.67
76049;PMS7003;64967;50.234;19.224;2023-07-16T11:42:33;18.67;18.67;15.67
76049;PMS7003;64967;50.234;19.224;2023-07-16T11:45:05;13.67;13.00;11.00
76049;PMS7003;64967;50.234;19.224;2023-07-16T11:47:41;20.67;19.33;17.67
76049;PMS7003;64967;50.234;19.224;2023-07-16T11:50:10;19.33;18.67;16.33
76049;PMS7003;64967;50.234;19.224;2023-07-16T11:52:38;15.67;15.33;12.67
76049;PMS7003;64967;50.234;19.224;2023-07-16T11:55:06;17.00;14.67;13.33
76049;PMS7003;64967;50.234;19.224;2023-07-16T11:57:33;16.33;16.00;12.33
76049;PMS7003;64967;50.234;19.224;2023-07-16T12:00:02;17.00;17.00;14.00
76049;PMS7003;64967;50.234;19.224;2023-07-16T12:02:30;16.33;15.33;12.67
76049;PMS7003;64967;50.234;19.224;2023-07-16T12:04:57;19.00;18.00;15.00
76049;PMS7003;64967;50.234;19.224;2023-07-16T12:07:37;17.00;15.33;12.67
76049;PMS7003;64967;50.234;19.224;2023-07-16T12:10:05;16.33;16.33;14.33
76049;PMS7003;64967;50.234;19.224;2023-07-16T12:12:33;9.67;9.33;7.67
76049;PMS7003;64967;50.234;19.224;2023-07-16T12:15:05;13.00;13.00;10.33
76049;PMS7003;64967;50.234;19.224;2023-07-16T12:17:33;11.00;11.00;10.00
76049;PMS7003;64967;50.234;19.224;2023-07-16T12:20:01;12.67;12.33;10.33
76049;PMS7003;64967;50.234;19.224;2023-07-16T12:22:30;16.00;16.00;14.00
76049;PMS7003;64967;50.234;19.224;2023-07-16T12:24:58;19.33;19.33;17.67
76049;PMS7003;64967;50.234;19.224;2023-07-16T12:27:25;18.67;17.67;14.33
76049;PMS7003;64967;50.234;19.224;2023-07-16T12:29:53;15.33;15.00;11.67
76049;PMS7003;64967;50.234;19.224;2023-07-16T12:32:20;20.00;20.00;17.00
76049;PMS7003;64967;50.234;19.224;2023-07-16T12:34:47;17.33;16.33;14.00
76049;PMS7003;64967;50.234;19.224;2023-07-16T12:37:14;16.33;16.00;15.00
76049;PMS7003;64967;50.234;19.224;2023-07-16T12:39:41;14.33;14.00;11.33
76049;PMS7003;64967;50.234;19.224;2023-07-16T12:42:08;11.67;11.33;10.33
76049;PMS7003;64967;50.234;19.224;2023-07-16T12:44:35;13.00;13.00;11.00
76049;PMS7003;64967;50.234;19.224;2023-07-16T12:47:02;13.00;12.00;10.33
76049;PMS7003;64967;50.234;19.224;2023-07-16T12:49:30;11.50;10.50;9.00
76049;PMS7003;64967;50.234;19.224;2023-07-16T12:51:57;11.00;10.33;9.33
76049;PMS7003;64967;50.234;19.224;2023-07-16T12:54:24;9.50;9.50;7.00
76049;PMS7003;64967;50.234;19.224;2023-07-16T12:56:51;10.67;10.00;9.00
76049;PMS7003;64967;50.234;19.224;2023-07-16T12:59:18;9.67;8.67;7.00
76049;PMS7003;64967;50.234;19.224;2023-07-16T13:01:46;16.00;16.00;13.33
76049;PMS7003;64967;50.234;19.224;2023-07-16T13:04:13;11.00;10.67;9.33
76049;PMS7003;64967;50.234;19.224;2023-07-16T13:06:40;15.67;15.67;14.33
76049;PMS7003;64967;50.234;19.224;2023-07-16T13:09:07;10.00;10.00;8.75
76049;PMS7003;64967;50.234;19.224;2023-07-16T13:11:34;10.00;9.00;8.00
76049;PMS7003;64967;50.234;19.224;2023-07-16T13:14:01;11.25;10.75;9.25
76049;PMS7003;64967;50.234;19.224;2023-07-16T13:16:28;12.00;11.00;10.25
76049;PMS7003;64967;50.234;19.224;2023-07-16T13:18:56;12.25;12.25;11.50
76049;PMS7003;64967;50.234;19.224;2023-07-16T13:21:23;17.00;16.33;14.00
76049;PMS7003;64967;50.234;19.224;2023-07-16T13:23:50;12.33;11.33;9.00
76049;PMS7003;64967;50.234;19.224;2023-07-16T13:26:17;12.67;12.00;10.33
76049;PMS7003;64967;50.234;19.224;2023-07-16T13:28:44;9.50;9.50;8.50
76049;PMS7003;64967;50.234;19.224;2023-07-16T13:31:11;9.25;9.00;7.00
76049;PMS7003;64967;50.234;19.224;2023-07-16T13:33:38;11.25;10.75;8.75
76049;PMS7003;64967;50.234;19.224;2023-07-16T13:36:05;12.75;10.75;9.25
76049;PMS7003;64967;50.234;19.224;2023-07-16T13:38:33;11.50;10.50;10.00
76049;PMS7003;64967;50.234;19.224;2023-07-16T13:41:00;11.25;11.00;9.00
76049;PMS7003;64967;50.234;19.224;2023-07-16T13:43:27;9.75;9.25;7.00
76049;PMS7003;64967;50.234;19.224;2023-07-16T13:45:54;13.00;12.00;10.00
76049;PMS7003;64967;50.234;19.224;2023-07-16T13:48:21;17.50;16.50;13.50
76049;PMS7003;64967;50.234;19.224;2023-07-16T13:50:48;14.00;13.67;12.67
76049;PMS7003;64967;50.234;19.224;2023-07-16T13:53:15;13.67;13.67;12.33
76049;PMS7003;64967;50.234;19.224;2023-07-16T13:55:42;10.00;10.00;8.00
76049;PMS7003;64967;50.234;19.224;2023-07-16T13:58:10;10.25;9.75;7.25
76049;PMS7003;64967;50.234;19.224;2023-07-16T14:00:37;11.75;11.25;9.25
76049;PMS7003;64967;50.234;19.224;2023-07-16T14:03:04;8.25;8.25;8.00
76049;PMS7003;64967;50.234;19.224;2023-07-16T14:05:33;10.25;9.75;8.50
76049;PMS7003;64967;50.234;19.224;2023-07-16T14:08:05;9.25;8.50;7.75
76049;PMS7003;64967;50.234;19.224;2023-07-16T14:10:33;8.75;8.75;7.00
76049;PMS7003;64967;50.234;19.224;2023-07-16T14:13:00;7.25;7.25;7.00